sensor_id;sensor_type;location;lat;lon;timestamp;P1;durP1;ratioP1;P2;durP2;ratioP2
80159;SDS011;69486;59.082;37.928;2023-07-09T00:00:06;1.20;;;1.10;;
80159;SDS011;69486;59.082;37.928;2023-07-09T00:02:36;0.80;;;0.80;;
80159;SDS011;69486;59.082;37.928;2023-07-09T00:05:03;0.60;;;0.60;;
80159;SDS011;69486;59.082;37.928;2023-07-09T00:07:30;0.88;;;0.82;;
80159;SDS011;69486;59.082;37.928;2023-07-09T00:09:57;0.80;;;0.70;;
80159;SDS011;69486;59.082;37.928;2023-07-09T00:12:23;1.40;;;0.80;;
80159;SDS011;69486;59.082;37.928;2023-07-09T00:14:50;1.13;;;0.73;;
80159;SDS011;69486;59.082;37.928;2023-07-09T00:17:26;0.80;;;0.68;;
80159;SDS011;69486;59.082;37.928;2023-07-09T00:19:53;1.35;;;0.93;;
80159;SDS011;69486;59.082;37.928;2023-07-09T00:22:19;1.30;;;0.70;;
80159;SDS011;69486;59.082;37.928;2023-07-09T00:24:45;1.40;;;0.70;;
80159;SDS011;69486;59.082;37.928;2023-07-09T00:27:12;0.95;;;0.60;;
80159;SDS011;69486;59.082;37.928;2023-07-09T00:29:40;0.85;;;0.70;;
80159;SDS011;69486;59.082;37.928;2023-07-09T00:32:10;1.70;;;0.50;;
80159;SDS011;69486;59.082;37.928;2023-07-09T00:34:36;1.92;;;0.70;;
80159;SDS011;69486;59.082;37.928;2023-07-09T00:37:07;1.60;;;0.60;;
80159;SDS011;69486;59.082;37.928;2023-07-09T00:39:33;1.60;;;0.70;;
80159;SDS011;69486;59.082;37.928;2023-07-09T00:41:59;0.65;;;0.63;;
80159;SDS011;69486;59.082;37.928;2023-07-09T00:49:34;1.80;;;0.50;;
80159;SDS011;69486;59.082;37.928;2023-07-09T00:52:05;1.75;;;0.55;;
80159;SDS011;69486;59.082;37.928;2023-07-09T00:54:36;0.93;;;0.60;;
80159;SDS011;69486;59.082;37.928;2023-07-09T00:57:08;0.70;;;0.70;;
80159;SDS011;69486;59.082;37.928;2023-07-09T00:59:34;0.57;;;0.50;;
80159;SDS011;69486;59.082;37.928;2023-07-09T01:02:00;0.45;;;0.43;;
80159;SDS011;69486;59.082;37.928;2023-07-09T01:04:25;0.50;;;0.50;;
80159;SDS011;69486;59.082;37.928;2023-07-09T01:06:52;1.50;;;0.77;;
80159;SDS011;69486;59.082;37.928;2023-07-09T01:09:20;1.67;;;0.60;;
80159;SDS011;69486;59.082;37.928;2023-07-09T01:11:46;0.73;;;0.38;;
80159;SDS011;69486;59.082;37.928;2023-07-09T01:14:13;0.80;;;0.60;;
80159;SDS011;69486;59.082;37.928;2023-07-09T01:16:45;0.65;;;0.47;;
80159;SDS011;69486;59.082;37.928;2023-07-09T01:19:12;0.50;;;0.30;;
80159;SDS011;69486;59.082;37.928;2023-07-09T01:21:39;0.90;;;0.63;;
80159;SDS011;69486;59.082;37.928;2023-07-09T01:24:15;0.47;;;0.35;;
80159;SDS011;69486;59.082;37.928;2023-07-09T01:26:51;2.97;;;0.50;;
80159;SDS011;69486;59.082;37.928;2023-07-09T01:29:17;1.45;;;0.70;;
80159;SDS011;69486;59.082;37.928;2023-07-09T01:31:43;0.73;;;0.40;;
80159;SDS011;69486;59.082;37.928;2023-07-09T01:34:09;2.63;;;0.35;;
80159;SDS011;69486;59.082;37.928;2023-07-09T01:36:34;0.50;;;0.40;;
80159;SDS011;69486;59.082;37.928;2023-07-09T01:39:00;5.10;;;1.85;;
80159;SDS011;69486;59.082;37.928;2023-07-09T01:41:26;1.17;;;0.65;;
80159;SDS011;69486;59.082;37.928;2023-07-09T01:43:51;1.42;;;0.57;;
80159;SDS011;69486;59.082;37.928;2023-07-09T01:46:18;0.93;;;0.60;;
80159;SDS011;69486;59.082;37.928;2023-07-09T01:48:44;0.95;;;0.40;;
80159;SDS011;69486;59.082;37.928;2023-07-09T01:51:11;0.40;;;0.40;;
80159;SDS011;69486;59.082;37.928;2023-07-09T01:53:37;0.50;;;0.50;;
80159;SDS011;69486;59.082;37.928;2023-07-09T01:56:04;0.77;;;0.40;;
80159;SDS011;69486;59.082;37.928;2023-07-09T01:58:29;1.02;;;0.63;;
80159;SDS011;69486;59.082;37.928;2023-07-09T02:00:57;1.00;;;0.50;;
80159;SDS011;69486;59.082;37.928;2023-07-09T02:03:22;1.23;;;0.50;;
80159;SDS011;69486;59.082;37.928;2023-07-09T02:05:54;0.75;;;0.60;;
80159;SDS011;69486;59.082;37.928;2023-07-09T02:08:20;0.82;;;0.70;;
80159;SDS011;69486;59.082;37.928;2023-07-09T02:10:48;0.70;;;0.70;;
80159;SDS011;69486;59.082;37.928;2023-07-09T02:13:14;0.75;;;0.60;;
80159;SDS011;69486;59.082;37.928;2023-07-09T02:15:40;0.88;;;0.60;;
80159;SDS011;69486;59.082;37.928;2023-07-09T02:18:09;1.95;;;0.52;;
80159;SDS011;69486;59.082;37.928;2023-07-09T02:20:35;0.95;;;0.50;;
80159;SDS011;69486;59.082;37.928;2023-07-09T02:23:01;0.55;;;0.47;;
80159;SDS011;69486;59.082;37.928;2023-07-09T02:25:27;1.70;;;0.75;;
80159;SDS011;69486;59.082;37.928;2023-07-09T02:27:52;0.88;;;0.60;;
80159;SDS011;69486;59.082;37.928;2023-07-09T02:30:18;1.42;;;0.70;;
80159;SDS011;69486;59.082;37.928;2023-07-09T02:32:43;2.08;;;0.50;;
80159;SDS011;69486;59.082;37.928;2023-07-09T02:35:09;0.73;;;0.50;;
80159;SDS011;69486;59.082;37.928;2023-07-09T02:37:35;2.10;;;0.57;;
80159;SDS011;69486;59.082;37.928;2023-07-09T02:40:00;0.68;;;0.65;;
80159;SDS011;69486;59.082;37.928;2023-07-09T02:42:26;1.63;;;1.00;;
80159;SDS011;69486;59.082;37.928;2023-07-09T02:44:54;1.75;;;0.70;;
80159;SDS011;69486;59.082;37.928;2023-07-09T02:47:20;3.38;;;0.93;;
80159;SDS011;69486;59.082;37.928;2023-07-09T02:49:45;1.30;;;0.80;;
80159;SDS011;69486;59.082;37.928;2023-07-09T02:52:11;2.75;;;1.00;;
80159;SDS011;69486;59.082;37.928;2023-07-09T02:54:37;1.73;;;0.70;;
80159;SDS011;69486;59.082;37.928;2023-07-09T02:57:02;3.40;;;0.80;;
80159;SDS011;69486;59.082;37.928;2023-07-09T02:59:28;2.20;;;0.88;;
80159;SDS011;69486;59.082;37.928;2023-07-09T03:01:55;3.83;;;0.82;;
80159;SDS011;69486;59.082;37.928;2023-07-09T03:04:21;1.85;;;0.70;;
80159;SDS011;69486;59.082;37.928;2023-07-09T03:06:46;3.63;;;0.93;;
80159;SDS011;69486;59.082;37.928;2023-07-09T03:09:12;2.15;;;0.80;;
80159;SDS011;69486;59.082;37.928;2023-07-09T03:11:38;1.40;;;0.65;;
80159;SDS011;69486;59.082;37.928;2023-07-09T03:14:03;3.88;;;1.10;;
80159;SDS011;69486;59.082;37.928;2023-07-09T03:16:30;3.25;;;0.75;;
80159;SDS011;69486;59.082;37.928;2023-07-09T03:18:56;0.98;;;0.60;;
80159;SDS011;69486;59.082;37.928;2023-07-09T03:21:23;1.95;;;0.80;;
80159;SDS011;69486;59.082;37.928;2023-07-09T03:23:48;1.90;;;0.75;;
80159;SDS011;69486;59.082;37.928;2023-07-09T03:26:14;1.35;;;0.90;;
80159;SDS011;69486;59.082;37.928;2023-07-09T03:28:40;1.67;;;0.90;;
80159;SDS011;69486;59.082;37.928;2023-07-09T03:31:06;1.38;;;0.70;;
80159;SDS011;69486;59.082;37.928;2023-07-09T03:33:32;2.90;;;0.90;;
80159;SDS011;69486;59.082;37.928;2023-07-09T03:35:58;2.70;;;0.98;;
80159;SDS011;69486;59.082;37.928;2023-07-09T03:38:23;4.35;;;1.10;;
80159;SDS011;69486;59.082;37.928;2023-07-09T03:40:50;3.72;;;1.00;;
80159;SDS011;69486;59.082;37.928;2023-07-09T03:43:15;1.73;;;0.90;;
80159;SDS011;69486;59.082;37.928;2023-07-09T03:45:41;2.15;;;0.90;;
80159;SDS011;69486;59.082;37.928;2023-07-09T03:48:09;4.32;;;1.15;;
80159;SDS011;69486;59.082;37.928;2023-07-09T03:50:35;1.58;;;0.90;;
80159;SDS011;69486;59.082;37.928;2023-07-09T03:53:01;2.33;;;0.90;;
80159;SDS011;69486;59.082;37.928;2023-07-09T03:55:26;4.30;;;1.00;;
80159;SDS011;69486;59.082;37.928;2023-07-09T03:57:55;3.85;;;1.00;;
80159;SDS011;69486;59.082;37.928;2023-07-09T04:00:21;2.10;;;0.82;;
80159;SDS011;69486;59.082;37.928;2023-07-09T04:02:48;2.70;;;0.90;;
80159;SDS011;69486;59.082;37.928;2023-07-09T04:05:14;3.53;;;0.90;;
80159;SDS011;69486;59.082;37.928;2023-07-09T04:07:40;1.40;;;0.80;;
80159;SDS011;69486;59.082;37.928;2023-07-09T04:10:06;1.63;;;0.93;;
80159;SDS011;69486;59.082;37.928;2023-07-09T04:12:32;2.22;;;1.10;;
80159;SDS011;69486;59.082;37.928;2023-07-09T04:14:58;5.22;;;1.48;;
80159;SDS011;69486;59.082;37.928;2023-07-09T04:17:23;8.30;;;1.58;;
80159;SDS011;69486;59.082;37.928;2023-07-09T04:19:49;7.22;;;1.20;;
80159;SDS011;69486;59.082;37.928;2023-07-09T04:22:16;5.18;;;1.60;;
80159;SDS011;69486;59.082;37.928;2023-07-09T04:24:42;7.15;;;1.70;;
80159;SDS011;69486;59.082;37.928;2023-07-09T04:27:08;14.77;;;2.95;;
80159;SDS011;69486;59.082;37.928;2023-07-09T04:29:34;13.65;;;4.28;;
80159;SDS011;69486;59.082;37.928;2023-07-09T04:32:04;20.98;;;6.13;;
80159;SDS011;69486;59.082;37.928;2023-07-09T04:34:30;21.15;;;7.10;;
80159;SDS011;69486;59.082;37.928;2023-07-09T04:36:56;15.68;;;5.50;;
80159;SDS011;69486;59.082;37.928;2023-07-09T04:39:21;15.52;;;4.68;;
80159;SDS011;69486;59.082;37.928;2023-07-09T04:41:47;10.70;;;3.10;;
80159;SDS011;69486;59.082;37.928;2023-07-09T04:44:13;8.95;;;3.25;;
80159;SDS011;69486;59.082;37.928;2023-07-09T04:46:39;6.00;;;2.30;;
80159;SDS011;69486;59.082;37.928;2023-07-09T04:49:04;9.48;;;2.72;;
80159;SDS011;69486;59.082;37.928;2023-07-09T04:51:30;11.10;;;2.05;;
80159;SDS011;69486;59.082;37.928;2023-07-09T04:53:55;12.98;;;3.85;;
80159;SDS011;69486;59.082;37.928;2023-07-09T04:56:21;6.57;;;2.20;;
80159;SDS011;69486;59.082;37.928;2023-07-09T04:58:48;6.60;;;3.50;;
80159;SDS011;69486;59.082;37.928;2023-07-09T05:01:13;5.43;;;2.13;;
80159;SDS011;69486;59.082;37.928;2023-07-09T05:03:39;7.70;;;2.80;;
80159;SDS011;69486;59.082;37.928;2023-07-09T05:06:05;7.00;;;2.88;;
80159;SDS011;69486;59.082;37.928;2023-07-09T05:08:33;7.57;;;3.35;;
80159;SDS011;69486;59.082;37.928;2023-07-09T05:10:58;6.30;;;2.90;;
80159;SDS011;69486;59.082;37.928;2023-07-09T05:13:25;6.97;;;3.10;;
80159;SDS011;69486;59.082;37.928;2023-07-09T05:15:50;6.43;;;2.67;;
80159;SDS011;69486;59.082;37.928;2023-07-09T05:18:16;3.80;;;1.75;;
80159;SDS011;69486;59.082;37.928;2023-07-09T05:20:43;3.75;;;1.80;;
80159;SDS011;69486;59.082;37.928;2023-07-09T05:23:08;2.72;;;1.58;;
80159;SDS011;69486;59.082;37.928;2023-07-09T05:25:34;5.53;;;1.95;;
80159;SDS011;69486;59.082;37.928;2023-07-09T05:28:00;4.63;;;1.60;;
80159;SDS011;69486;59.082;37.928;2023-07-09T05:30:26;1.85;;;1.20;;
80159;SDS011;69486;59.082;37.928;2023-07-09T05:32:51;3.03;;;1.10;;
80159;SDS011;69486;59.082;37.928;2023-07-09T05:35:19;2.30;;;0.90;;
80159;SDS011;69486;59.082;37.928;2023-07-09T05:37:45;1.25;;;0.88;;
80159;SDS011;69486;59.082;37.928;2023-07-09T05:40:10;1.25;;;0.82;;
80159;SDS011;69486;59.082;37.928;2023-07-09T05:42:36;2.25;;;1.35;;
80159;SDS011;69486;59.082;37.928;2023-07-09T05:45:02;1.60;;;0.70;;
80159;SDS011;69486;59.082;37.928;2023-07-09T05:47:28;1.50;;;1.40;;
80159;SDS011;69486;59.082;37.928;2023-07-09T05:49:53;1.00;;;0.70;;
80159;SDS011;69486;59.082;37.928;2023-07-09T05:52:20;1.35;;;0.80;;
80159;SDS011;69486;59.082;37.928;2023-07-09T05:54:46;2.38;;;0.65;;
80159;SDS011;69486;59.082;37.928;2023-07-09T05:57:11;1.98;;;0.93;;
80159;SDS011;69486;59.082;37.928;2023-07-09T05:59:37;0.90;;;0.70;;
80159;SDS011;69486;59.082;37.928;2023-07-09T06:02:03;3.70;;;1.05;;
80159;SDS011;69486;59.082;37.928;2023-07-09T06:04:29;2.33;;;0.93;;
80159;SDS011;69486;59.082;37.928;2023-07-09T06:06:56;1.58;;;0.60;;
80159;SDS011;69486;59.082;37.928;2023-07-09T06:09:22;1.67;;;0.70;;
80159;SDS011;69486;59.082;37.928;2023-07-09T06:11:47;2.35;;;1.63;;
80159;SDS011;69486;59.082;37.928;2023-07-09T06:14:13;0.85;;;0.65;;
80159;SDS011;69486;59.082;37.928;2023-07-09T06:16:39;1.58;;;0.82;;
80159;SDS011;69486;59.082;37.928;2023-07-09T06:19:04;2.60;;;0.80;;
80159;SDS011;69486;59.082;37.928;2023-07-09T06:21:30;0.70;;;0.60;;
80159;SDS011;69486;59.082;37.928;2023-07-09T06:23:56;3.60;;;0.77;;
80159;SDS011;69486;59.082;37.928;2023-07-09T06:26:23;0.60;;;0.60;;
80159;SDS011;69486;59.082;37.928;2023-07-09T06:28:48;1.10;;;0.73;;
80159;SDS011;69486;59.082;37.928;2023-07-09T06:31:14;1.65;;;0.55;;
80159;SDS011;69486;59.082;37.928;2023-07-09T06:33:40;0.65;;;0.60;;
80159;SDS011;69486;59.082;37.928;2023-07-09T06:36:05;0.57;;;0.57;;
80159;SDS011;69486;59.082;37.928;2023-07-09T06:38:31;7.75;;;6.45;;
80159;SDS011;69486;59.082;37.928;2023-07-09T06:40:57;1.73;;;0.80;;
80159;SDS011;69486;59.082;37.928;2023-07-09T06:43:23;1.13;;;0.88;;
80159;SDS011;69486;59.082;37.928;2023-07-09T06:45:53;0.60;;;0.60;;
80159;SDS011;69486;59.082;37.928;2023-07-09T06:48:19;1.02;;;0.90;;
80159;SDS011;69486;59.082;37.928;2023-07-09T06:50:45;0.88;;;0.50;;
80159;SDS011;69486;59.082;37.928;2023-07-09T06:53:11;1.65;;;1.52;;
80159;SDS011;69486;59.082;37.928;2023-07-09T06:55:37;1.02;;;0.73;;
80159;SDS011;69486;59.082;37.928;2023-07-09T06:58:03;0.85;;;0.70;;
80159;SDS011;69486;59.082;37.928;2023-07-09T07:00:29;0.73;;;0.65;;
80159;SDS011;69486;59.082;37.928;2023-07-09T07:02:54;0.75;;;0.60;;
80159;SDS011;69486;59.082;37.928;2023-07-09T07:05:20;0.90;;;0.63;;
80159;SDS011;69486;59.082;37.928;2023-07-09T07:07:46;6.53;;;3.58;;
80159;SDS011;69486;59.082;37.928;2023-07-09T07:10:12;3.25;;;2.63;;
80159;SDS011;69486;59.082;37.928;2023-07-09T07:12:42;1.15;;;1.00;;
80159;SDS011;69486;59.082;37.928;2023-07-09T07:15:08;1.20;;;1.10;;
80159;SDS011;69486;59.082;37.928;2023-07-09T07:17:34;0.85;;;0.77;;
80159;SDS011;69486;59.082;37.928;2023-07-09T07:20:00;1.27;;;0.80;;
80159;SDS011;69486;59.082;37.928;2023-07-09T07:22:25;1.98;;;1.58;;
80159;SDS011;69486;59.082;37.928;2023-07-09T07:24:51;6.13;;;4.18;;
80159;SDS011;69486;59.082;37.928;2023-07-09T07:27:17;1.98;;;1.50;;
80159;SDS011;69486;59.082;37.928;2023-07-09T07:29:43;1.25;;;0.98;;
80159;SDS011;69486;59.082;37.928;2023-07-09T07:32:10;3.25;;;2.95;;
80159;SDS011;69486;59.082;37.928;2023-07-09T07:34:35;2.72;;;2.50;;
80159;SDS011;69486;59.082;37.928;2023-07-09T07:37:01;1.38;;;0.55;;
80159;SDS011;69486;59.082;37.928;2023-07-09T07:39:27;1.90;;;0.80;;
80159;SDS011;69486;59.082;37.928;2023-07-09T07:41:53;2.05;;;1.10;;
80159;SDS011;69486;59.082;37.928;2023-07-09T07:44:20;4.65;;;1.15;;
80159;SDS011;69486;59.082;37.928;2023-07-09T07:46:46;2.50;;;1.10;;
80159;SDS011;69486;59.082;37.928;2023-07-09T07:49:12;3.28;;;1.08;;
80159;SDS011;69486;59.082;37.928;2023-07-09T07:51:37;6.05;;;1.27;;
80159;SDS011;69486;59.082;37.928;2023-07-09T07:54:03;7.25;;;2.75;;
80159;SDS011;69486;59.082;37.928;2023-07-09T07:56:29;4.20;;;2.53;;
80159;SDS011;69486;59.082;37.928;2023-07-09T07:58:55;6.78;;;2.47;;
80159;SDS011;69486;59.082;37.928;2023-07-09T08:01:20;6.32;;;2.67;;
80159;SDS011;69486;59.082;37.928;2023-07-09T08:03:46;6.22;;;2.92;;
80159;SDS011;69486;59.082;37.928;2023-07-09T08:06:12;6.85;;;3.20;;
80159;SDS011;69486;59.082;37.928;2023-07-09T08:08:37;7.97;;;3.10;;
80159;SDS011;69486;59.082;37.928;2023-07-09T08:11:04;7.72;;;4.82;;
80159;SDS011;69486;59.082;37.928;2023-07-09T08:13:33;5.32;;;2.35;;
80159;SDS011;69486;59.082;37.928;2023-07-09T08:16:00;3.67;;;1.48;;
80159;SDS011;69486;59.082;37.928;2023-07-09T08:18:25;4.82;;;2.13;;
80159;SDS011;69486;59.082;37.928;2023-07-09T08:20:51;4.88;;;2.30;;
80159;SDS011;69486;59.082;37.928;2023-07-09T08:23:17;4.38;;;1.83;;
80159;SDS011;69486;59.082;37.928;2023-07-09T08:25:42;8.10;;;3.80;;
80159;SDS011;69486;59.082;37.928;2023-07-09T08:28:08;10.48;;;6.53;;
80159;SDS011;69486;59.082;37.928;2023-07-09T08:30:35;8.52;;;3.58;;
80159;SDS011;69486;59.082;37.928;2023-07-09T08:33:01;6.38;;;2.20;;
80159;SDS011;69486;59.082;37.928;2023-07-09T08:35:27;3.45;;;1.85;;
80159;SDS011;69486;59.082;37.928;2023-07-09T08:37:54;3.10;;;1.80;;
80159;SDS011;69486;59.082;37.928;2023-07-09T08:40:19;2.08;;;1.50;;
80159;SDS011;69486;59.082;37.928;2023-07-09T08:42:46;5.70;;;2.28;;
80159;SDS011;69486;59.082;37.928;2023-07-09T08:50:10;10.10;;;5.50;;
80159;SDS011;69486;59.082;37.928;2023-07-09T08:52:40;5.93;;;2.63;;
80159;SDS011;69486;59.082;37.928;2023-07-09T08:55:08;2.75;;;1.80;;
80159;SDS011;69486;59.082;37.928;2023-07-09T08:57:39;5.72;;;2.83;;
80159;SDS011;69486;59.082;37.928;2023-07-09T09:00:16;7.65;;;3.60;;
80159;SDS011;69486;59.082;37.928;2023-07-09T09:02:44;4.40;;;1.40;;
80159;SDS011;69486;59.082;37.928;2023-07-09T09:05:11;1.50;;;1.17;;
80159;SDS011;69486;59.082;37.928;2023-07-09T09:07:39;6.82;;;1.52;;
80159;SDS011;69486;59.082;37.928;2023-07-09T09:10:17;4.05;;;1.75;;
80159;SDS011;69486;59.082;37.928;2023-07-09T09:13:17;2.42;;;1.05;;
80159;SDS011;69486;59.082;37.928;2023-07-09T09:15:36;3.22;;;1.02;;
80159;SDS011;69486;59.082;37.928;2023-07-09T09:18:22;3.80;;;1.17;;
80159;SDS011;69486;59.082;37.928;2023-07-09T09:20:51;1.80;;;0.80;;
80159;SDS011;69486;59.082;37.928;2023-07-09T09:23:18;2.35;;;0.73;;
80159;SDS011;69486;59.082;37.928;2023-07-09T09:25:46;2.45;;;1.35;;
80159;SDS011;69486;59.082;37.928;2023-07-09T09:28:12;2.42;;;1.40;;
80159;SDS011;69486;59.082;37.928;2023-07-09T09:30:39;3.17;;;1.75;;
80159;SDS011;69486;59.082;37.928;2023-07-09T09:33:06;4.60;;;2.38;;
80159;SDS011;69486;59.082;37.928;2023-07-09T09:35:33;3.75;;;1.88;;
80159;SDS011;69486;59.082;37.928;2023-07-09T09:38:00;8.52;;;3.75;;
80159;SDS011;69486;59.082;37.928;2023-07-09T09:40:27;7.30;;;4.35;;
80159;SDS011;69486;59.082;37.928;2023-07-09T09:42:55;5.68;;;3.53;;
80159;SDS011;69486;59.082;37.928;2023-07-09T09:45:24;6.07;;;2.10;;
80159;SDS011;69486;59.082;37.928;2023-07-09T09:47:50;3.30;;;1.20;;
80159;SDS011;69486;59.082;37.928;2023-07-09T09:50:16;4.70;;;1.00;;
80159;SDS011;69486;59.082;37.928;2023-07-09T09:52:43;3.15;;;0.80;;
80159;SDS011;69486;59.082;37.928;2023-07-09T09:55:18;2.33;;;0.52;;
80159;SDS011;69486;59.082;37.928;2023-07-09T09:57:48;2.60;;;0.93;;
80159;SDS011;69486;59.082;37.928;2023-07-09T10:00:15;5.22;;;2.78;;
80159;SDS011;69486;59.082;37.928;2023-07-09T10:02:41;8.73;;;2.40;;
80159;SDS011;69486;59.082;37.928;2023-07-09T10:05:18;4.60;;;2.50;;
80159;SDS011;69486;59.082;37.928;2023-07-09T10:07:47;3.55;;;1.75;;
80159;SDS011;69486;59.082;37.928;2023-07-09T10:10:18;3.40;;;1.75;;
80159;SDS011;69486;59.082;37.928;2023-07-09T10:17:57;6.75;;;3.65;;
80159;SDS011;69486;59.082;37.928;2023-07-09T10:23:26;2.17;;;1.50;;
80159;SDS011;69486;59.082;37.928;2023-07-09T10:26:03;3.92;;;1.10;;
80159;SDS011;69486;59.082;37.928;2023-07-09T10:31:24;6.05;;;3.38;;
80159;SDS011;69486;59.082;37.928;2023-07-09T10:36:43;5.00;;;2.90;;
80159;SDS011;69486;59.082;37.928;2023-07-09T10:39:19;9.90;;;4.07;;
80159;SDS011;69486;59.082;37.928;2023-07-09T10:41:48;5.63;;;2.85;;
80159;SDS011;69486;59.082;37.928;2023-07-09T10:46:42;5.82;;;2.30;;
80159;SDS011;69486;59.082;37.928;2023-07-09T10:49:12;4.85;;;1.83;;
80159;SDS011;69486;59.082;37.928;2023-07-09T10:51:41;3.75;;;1.88;;
80159;SDS011;69486;59.082;37.928;2023-07-09T10:54:29;2.45;;;1.38;;
80159;SDS011;69486;59.082;37.928;2023-07-09T10:56:56;4.55;;;1.88;;
80159;SDS011;69486;59.082;37.928;2023-07-09T10:59:31;7.82;;;2.95;;
80159;SDS011;69486;59.082;37.928;2023-07-09T11:02:02;9.15;;;4.22;;
80159;SDS011;69486;59.082;37.928;2023-07-09T11:04:40;8.95;;;4.72;;
80159;SDS011;69486;59.082;37.928;2023-07-09T11:07:14;7.57;;;3.50;;
80159;SDS011;69486;59.082;37.928;2023-07-09T11:09:43;8.65;;;4.07;;
80159;SDS011;69486;59.082;37.928;2023-07-09T11:12:13;4.68;;;1.83;;
80159;SDS011;69486;59.082;37.928;2023-07-09T11:14:41;5.50;;;2.17;;
80159;SDS011;69486;59.082;37.928;2023-07-09T11:17:12;4.78;;;2.55;;
80159;SDS011;69486;59.082;37.928;2023-07-09T11:19:43;9.20;;;2.97;;
80159;SDS011;69486;59.082;37.928;2023-07-09T11:22:15;10.15;;;3.45;;
80159;SDS011;69486;59.082;37.928;2023-07-09T11:25:44;4.85;;;2.40;;
80159;SDS011;69486;59.082;37.928;2023-07-09T11:27:50;4.78;;;1.77;;
80159;SDS011;69486;59.082;37.928;2023-07-09T11:32:46;4.07;;;2.20;;
80159;SDS011;69486;59.082;37.928;2023-07-09T11:35:22;3.35;;;2.35;;
80159;SDS011;69486;59.082;37.928;2023-07-09T11:37:48;5.65;;;1.27;;
80159;SDS011;69486;59.082;37.928;2023-07-09T11:40:14;3.08;;;1.65;;
80159;SDS011;69486;59.082;37.928;2023-07-09T11:42:54;3.58;;;2.30;;
80159;SDS011;69486;59.082;37.928;2023-07-09T11:45:23;6.63;;;2.80;;
80159;SDS011;69486;59.082;37.928;2023-07-09T11:47:53;5.10;;;2.03;;
80159;SDS011;69486;59.082;37.928;2023-07-09T11:50:24;2.60;;;1.38;;
80159;SDS011;69486;59.082;37.928;2023-07-09T11:55:43;3.38;;;1.20;;
80159;SDS011;69486;59.082;37.928;2023-07-09T11:58:10;3.63;;;1.58;;
80159;SDS011;69486;59.082;37.928;2023-07-09T12:00:46;2.10;;;1.10;;
80159;SDS011;69486;59.082;37.928;2023-07-09T12:03:18;1.65;;;1.08;;
80159;SDS011;69486;59.082;37.928;2023-07-09T12:05:51;3.85;;;1.20;;
80159;SDS011;69486;59.082;37.928;2023-07-09T12:08:18;4.63;;;0.80;;
80159;SDS011;69486;59.082;37.928;2023-07-09T12:10:44;1.88;;;0.40;;
80159;SDS011;69486;59.082;37.928;2023-07-09T12:13:10;0.40;;;0.30;;
80159;SDS011;69486;59.082;37.928;2023-07-09T12:15:38;1.08;;;0.25;;
80159;SDS011;69486;59.082;37.928;2023-07-09T12:18:08;1.73;;;0.30;;
80159;SDS011;69486;59.082;37.928;2023-07-09T12:20:36;1.08;;;0.40;;
80159;SDS011;69486;59.082;37.928;2023-07-09T12:26:00;1.48;;;1.05;;
80159;SDS011;69486;59.082;37.928;2023-07-09T12:28:27;6.40;;;4.88;;
80159;SDS011;69486;59.082;37.928;2023-07-09T12:30:53;1.80;;;0.60;;
80159;SDS011;69486;59.082;37.928;2023-07-09T12:33:20;1.23;;;0.70;;
80159;SDS011;69486;59.082;37.928;2023-07-09T12:35:47;2.67;;;0.70;;
80159;SDS011;69486;59.082;37.928;2023-07-09T12:38:20;4.15;;;0.65;;
80159;SDS011;69486;59.082;37.928;2023-07-09T12:40:46;1.13;;;0.67;;
80159;SDS011;69486;59.082;37.928;2023-07-09T12:43:12;1.45;;;0.60;;
80159;SDS011;69486;59.082;37.928;2023-07-09T12:45:38;5.82;;;3.90;;
80159;SDS011;69486;59.082;37.928;2023-07-09T12:48:04;1.80;;;0.80;;
80159;SDS011;69486;59.082;37.928;2023-07-09T12:50:31;3.47;;;1.05;;
80159;SDS011;69486;59.082;37.928;2023-07-09T12:53:00;0.75;;;0.38;;
80159;SDS011;69486;59.082;37.928;2023-07-09T12:55:27;1.27;;;0.60;;
80159;SDS011;69486;59.082;37.928;2023-07-09T12:57:56;1.63;;;0.50;;
80159;SDS011;69486;59.082;37.928;2023-07-09T13:00:22;0.60;;;0.30;;
80159;SDS011;69486;59.082;37.928;2023-07-09T13:02:53;0.43;;;0.30;;
80159;SDS011;69486;59.082;37.928;2023-07-09T13:05:20;0.30;;;0.30;;
80159;SDS011;69486;59.082;37.928;2023-07-09T13:07:47;11.63;;;9.02;;
80159;SDS011;69486;59.082;37.928;2023-07-09T13:10:16;2.80;;;2.33;;
80159;SDS011;69486;59.082;37.928;2023-07-09T13:12:44;2.10;;;0.20;;
80159;SDS011;69486;59.082;37.928;2023-07-09T13:15:24;0.20;;;0.20;;
80159;SDS011;69486;59.082;37.928;2023-07-09T13:17:56;0.30;;;0.10;;
80159;SDS011;69486;59.082;37.928;2023-07-09T13:20:22;0.30;;;0.22;;
80159;SDS011;69486;59.082;37.928;2023-07-09T13:22:47;0.95;;;0.40;;
80159;SDS011;69486;59.082;37.928;2023-07-09T13:25:13;0.30;;;0.30;;
80159;SDS011;69486;59.082;37.928;2023-07-09T13:27:38;0.25;;;0.10;;
80159;SDS011;69486;59.082;37.928;2023-07-09T13:30:04;0.22;;;0.20;;
80159;SDS011;69486;59.082;37.928;2023-07-09T13:32:30;0.65;;;0.20;;
80159;SDS011;69486;59.082;37.928;2023-07-09T13:34:56;0.65;;;0.20;;
80159;SDS011;69486;59.082;37.928;2023-07-09T13:37:22;2.42;;;1.20;;
80159;SDS011;69486;59.082;37.928;2023-07-09T13:39:48;12.40;;;8.50;;
80159;SDS011;69486;59.082;37.928;2023-07-09T13:42:15;3.92;;;2.25;;
80159;SDS011;69486;59.082;37.928;2023-07-09T13:44:42;1.77;;;1.33;;
80159;SDS011;69486;59.082;37.928;2023-07-09T13:47:11;3.42;;;3.10;;
80159;SDS011;69486;59.082;37.928;2023-07-09T13:49:36;0.38;;;0.38;;
80159;SDS011;69486;59.082;37.928;2023-07-09T13:52:02;1.65;;;1.25;;
80159;SDS011;69486;59.082;37.928;2023-07-09T13:54:30;0.20;;;0.20;;
80159;SDS011;69486;59.082;37.928;2023-07-09T13:57:04;0.15;;;0.15;;
80159;SDS011;69486;59.082;37.928;2023-07-09T13:59:30;3.72;;;0.75;;
80159;SDS011;69486;59.082;37.928;2023-07-09T14:01:56;0.20;;;0.20;;
80159;SDS011;69486;59.082;37.928;2023-07-09T14:04:23;0.63;;;0.30;;
80159;SDS011;69486;59.082;37.928;2023-07-09T14:06:49;2.35;;;0.20;;
80159;SDS011;69486;59.082;37.928;2023-07-09T14:09:15;0.10;;;0.10;;
80159;SDS011;69486;59.082;37.928;2023-07-09T14:11:45;2.63;;;1.38;;
80159;SDS011;69486;59.082;37.928;2023-07-09T14:14:19;4.05;;;3.17;;
80159;SDS011;69486;59.082;37.928;2023-07-09T14:16:45;5.85;;;1.30;;
80159;SDS011;69486;59.082;37.928;2023-07-09T14:19:12;0.30;;;0.20;;
80159;SDS011;69486;59.082;37.928;2023-07-09T14:21:38;0.20;;;0.20;;
80159;SDS011;69486;59.082;37.928;2023-07-09T14:24:12;1.60;;;0.20;;
80159;SDS011;69486;59.082;37.928;2023-07-09T14:26:41;1.20;;;0.28;;
80159;SDS011;69486;59.082;37.928;2023-07-09T14:29:07;3.42;;;2.22;;
80159;SDS011;69486;59.082;37.928;2023-07-09T14:31:33;0.73;;;0.73;;
80159;SDS011;69486;59.082;37.928;2023-07-09T14:36:45;1.15;;;0.10;;
80159;SDS011;69486;59.082;37.928;2023-07-09T14:39:11;0.15;;;0.10;;
80159;SDS011;69486;59.082;37.928;2023-07-09T14:41:37;0.55;;;0.30;;
80159;SDS011;69486;59.082;37.928;2023-07-09T14:44:05;0.20;;;0.10;;
80159;SDS011;69486;59.082;37.928;2023-07-09T14:46:38;0.60;;;0.20;;
80159;SDS011;69486;59.082;37.928;2023-07-09T14:49:04;0.28;;;0.20;;
80159;SDS011;69486;59.082;37.928;2023-07-09T14:51:29;1.23;;;0.50;;
80159;SDS011;69486;59.082;37.928;2023-07-09T14:53:55;2.63;;;2.35;;
80159;SDS011;69486;59.082;37.928;2023-07-09T14:56:20;3.00;;;0.57;;
80159;SDS011;69486;59.082;37.928;2023-07-09T14:58:46;1.02;;;0.30;;
80159;SDS011;69486;59.082;37.928;2023-07-09T15:01:15;0.65;;;0.40;;
80159;SDS011;69486;59.082;37.928;2023-07-09T15:03:41;0.60;;;0.20;;
80159;SDS011;69486;59.082;37.928;2023-07-09T15:06:06;0.10;;;0.10;;
80159;SDS011;69486;59.082;37.928;2023-07-09T15:08:32;0.10;;;0.10;;
80159;SDS011;69486;59.082;37.928;2023-07-09T15:10:58;0.25;;;0.10;;